createdAt,value
2017-07-12T00:01:39.264Z,17.80
2017-07-12T00:04:07.297Z,17.70
2017-07-12T00:06:35.300Z,17.70
2017-07-12T00:09:03.323Z,17.60
2017-07-12T00:11:31.344Z,17.40
2017-07-12T00:13:59.372Z,17.40
2017-07-12T00:16:27.380Z,17.40
2017-07-12T00:18:55.404Z,17.30
2017-07-12T00:21:23.428Z,17.20
2017-07-12T00:23:51.455Z,17.10
2017-07-12T00:26:19.472Z,17.10
2017-07-12T00:28:48.251Z,17.00
2017-07-12T00:31:17.256Z,17.00
2017-07-12T00:33:45.265Z,17.10
2017-07-12T00:36:13.280Z,17.00
2017-07-12T00:38:41.299Z,16.90
2017-07-12T00:41:09.331Z,16.80
2017-07-12T00:43:37.347Z,16.90
2017-07-12T00:46:05.396Z,16.90
2017-07-12T00:48:33.417Z,17.00
2017-07-12T00:51:01.435Z,17.10
2017-07-12T00:53:29.471Z,16.90
2017-07-12T00:55:57.491Z,16.80
2017-07-12T00:58:25.508Z,16.70
2017-07-12T01:00:53.539Z,16.80
2017-07-12T01:03:21.551Z,16.80
2017-07-12T01:05:49.607Z,16.80
2017-07-12T01:08:17.583Z,16.90
2017-07-12T01:10:45.628Z,16.80
2017-07-12T01:13:13.647Z,16.80
2017-07-12T01:15:41.667Z,16.90
2017-07-12T01:18:09.689Z,17.00
2017-07-12T01:20:38.471Z,17.10
2017-07-12T01:23:06.494Z,17.00
2017-07-12T01:25:34.511Z,17.00
2017-07-12T01:28:03.306Z,16.70
2017-07-12T01:30:31.351Z,16.60
2017-07-12T01:32:59.367Z,16.70
2017-07-12T01:35:27.379Z,16.60
2017-07-12T01:37:55.403Z,16.70
2017-07-12T01:40:23.418Z,16.70
2017-07-12T01:42:51.426Z,16.80
2017-07-12T01:45:19.487Z,16.70
2017-07-12T01:47:47.502Z,16.60
2017-07-12T01:50:15.518Z,16.70
2017-07-12T01:52:43.556Z,16.80
2017-07-12T01:55:11.567Z,16.80
2017-07-12T01:57:40.350Z,16.90
2017-07-12T02:00:08.370Z,16.90
2017-07-12T02:02:36.394Z,17.00
2017-07-12T02:05:04.398Z,17.10
2017-07-12T02:07:32.426Z,17.00
2017-07-12T02:10:00.438Z,17.10
2017-07-12T02:12:28.459Z,17.10
2017-07-12T02:14:56.502Z,17.10
2017-07-12T02:17:24.518Z,17.20
2017-07-12T02:19:53.291Z,17.30
2017-07-12T02:22:21.313Z,17.30
2017-07-12T02:24:49.346Z,17.40
2017-07-12T02:27:18.118Z,17.50
2017-07-12T02:29:46.150Z,17.50
2017-07-12T02:32:15.158Z,17.50
2017-07-12T02:34:43.182Z,17.40
2017-07-12T02:37:11.207Z,17.40
2017-07-12T02:39:39.214Z,17.40
2017-07-12T02:42:07.233Z,17.30
2017-07-12T02:44:35.271Z,17.20
2017-07-12T02:47:03.277Z,17.30
2017-07-12T02:49:31.295Z,17.30
2017-07-12T02:51:59.400Z,17.40
2017-07-12T02:54:27.354Z,17.40
2017-07-12T02:56:55.367Z,17.40
2017-07-12T02:59:23.395Z,17.30
2017-07-12T03:01:51.412Z,17.20
2017-07-12T03:04:19.427Z,17.30
2017-07-12T03:06:47.457Z,17.30
2017-07-12T03:09:15.474Z,17.20
2017-07-12T03:11:43.500Z,17.20
2017-07-12T03:14:11.523Z,17.20
2017-07-12T03:16:39.534Z,17.40
2017-07-12T03:19:07.546Z,17.40
2017-07-12T03:21:36.578Z,17.50
2017-07-12T03:24:04.594Z,17.50
2017-07-12T03:26:32.607Z,17.50
2017-07-12T03:29:00.734Z,17.60
2017-07-12T03:31:28.709Z,17.50
2017-07-12T03:33:56.780Z,17.50
2017-07-12T03:36:24.743Z,17.50
2017-07-12T03:38:52.763Z,17.60
2017-07-12T03:41:20.782Z,17.60
2017-07-12T03:43:48.814Z,17.70
2017-07-12T03:46:16.822Z,17.80
2017-07-12T03:48:44.844Z,17.80
2017-07-12T03:51:12.855Z,17.90
2017-07-12T03:53:40.870Z,17.80
2017-07-12T03:56:08.882Z,17.80
2017-07-12T03:58:37.670Z,17.90
2017-07-12T04:01:06.446Z,17.80
2017-07-12T04:03:34.462Z,17.80
2017-07-12T04:06:02.513Z,17.80
2017-07-12T04:08:30.522Z,17.60
2017-07-12T04:10:58.533Z,17.60
2017-07-12T04:13:27.329Z,17.80
2017-07-12T04:15:55.337Z,17.80
2017-07-12T04:18:23.342Z,17.80
2017-07-12T04:20:51.387Z,17.90
2017-07-12T04:23:19.401Z,17.90
2017-07-12T04:25:48.174Z,17.90
2017-07-12T04:28:16.214Z,17.90
2017-07-12T04:30:44.231Z,17.70
2017-07-12T04:33:13.002Z,17.70
2017-07-12T04:35:41.046Z,17.60
2017-07-12T04:38:09.069Z,17.60
2017-07-12T04:40:37.834Z,17.50
2017-07-12T04:43:06.811Z,17.50
2017-07-12T04:45:34.826Z,17.50
2017-07-12T04:48:02.833Z,17.50
2017-07-12T04:50:30.857Z,17.70
2017-07-12T04:52:58.877Z,17.70
2017-07-12T04:55:26.897Z,17.80
2017-07-12T04:57:54.937Z,17.80
2017-07-12T05:00:22.953Z,17.80
2017-07-12T05:02:50.965Z,17.80
2017-07-12T05:05:19.006Z,17.90
2017-07-12T05:07:47.030Z,17.80
2017-07-12T05:10:15.041Z,17.90
2017-07-12T05:12:43.086Z,17.90
2017-07-12T05:15:11.114Z,18.00
2017-07-12T05:17:39.126Z,18.00
2017-07-12T05:20:07.165Z,18.10
2017-07-12T05:22:35.172Z,18.10
2017-07-12T05:25:03.184Z,18.20
2017-07-12T05:27:31.217Z,18.30
2017-07-12T05:29:59.229Z,18.40
2017-07-12T05:32:27.241Z,18.50
2017-07-12T05:34:55.277Z,18.50
2017-07-12T05:37:23.290Z,18.60
2017-07-12T05:39:51.301Z,18.60
2017-07-12T05:42:19.337Z,18.70
2017-07-12T05:44:47.353Z,18.70
2017-07-12T05:47:15.361Z,18.70
2017-07-12T05:49:43.385Z,18.70
2017-07-12T05:52:11.405Z,18.70
2017-07-12T05:54:39.424Z,18.70
2017-07-12T05:57:07.461Z,18.60
2017-07-12T05:59:35.476Z,18.60
2017-07-12T06:02:03.492Z,18.60
2017-07-12T06:04:31.532Z,18.70
2017-07-12T06:06:59.541Z,18.70
2017-07-12T06:09:27.552Z,18.80
2017-07-12T06:11:55.581Z,18.90
2017-07-12T06:14:23.593Z,18.90
2017-07-12T06:16:51.604Z,19.00
2017-07-12T06:19:19.641Z,19.00
2017-07-12T06:21:48.425Z,19.20
2017-07-12T06:24:16.524Z,19.20
2017-07-12T06:26:44.524Z,19.20
2017-07-12T06:29:12.532Z,19.20
2017-07-12T06:31:40.544Z,19.40
2017-07-12T06:34:08.567Z,19.40
2017-07-12T06:36:36.575Z,19.50
2017-07-12T06:39:04.588Z,19.60
2017-07-12T06:41:32.624Z,19.50
2017-07-12T06:44:00.631Z,19.40
2017-07-12T06:46:28.653Z,19.40
2017-07-12T06:48:56.689Z,19.50
2017-07-12T06:51:24.745Z,19.80
2017-07-12T06:53:52.716Z,20.00
2017-07-12T06:56:20.748Z,20.30
2017-07-12T06:58:48.759Z,20.50
2017-07-12T07:01:16.771Z,20.70
2017-07-12T07:03:44.816Z,21.00
2017-07-12T07:06:12.827Z,21.00
2017-07-12T07:08:40.836Z,21.00
2017-07-12T07:11:08.878Z,20.90
2017-07-12T07:13:36.883Z,20.80
2017-07-12T07:16:04.891Z,20.90
2017-07-12T07:18:32.927Z,21.00
2017-07-12T07:21:01.703Z,21.30
2017-07-12T07:23:29.718Z,21.30
2017-07-12T07:25:57.816Z,21.30
2017-07-12T07:28:25.771Z,21.10
2017-07-12T07:30:53.776Z,21.00
2017-07-12T07:33:21.800Z,21.10
2017-07-12T07:35:49.859Z,21.20
2017-07-12T07:38:17.828Z,21.30
2017-07-12T07:40:45.859Z,21.40
2017-07-12T07:43:13.863Z,21.30
2017-07-12T07:45:41.870Z,21.20
2017-07-12T07:48:09.883Z,21.30
2017-07-12T07:50:38.704Z,21.10
2017-07-12T07:53:06.707Z,21.10
2017-07-12T07:55:34.728Z,21.20
2017-07-12T07:58:02.747Z,21.30
2017-07-12T08:00:30.754Z,21.30
2017-07-12T08:02:59.555Z,21.50
2017-07-12T08:05:27.566Z,21.50
2017-07-12T08:07:55.570Z,21.60
2017-07-12T08:10:24.371Z,21.70
2017-07-12T08:12:53.151Z,21.70
2017-07-12T08:15:21.923Z,21.90
2017-07-12T08:17:49.935Z,21.90
2017-07-12T08:20:17.942Z,22.10
2017-07-12T08:22:45.950Z,22.20
2017-07-12T08:25:14.746Z,22.00
2017-07-12T08:27:43.523Z,21.80
2017-07-12T08:30:11.530Z,21.80
2017-07-12T08:32:39.626Z,22.00
2017-07-12T08:35:07.633Z,22.10
2017-07-12T08:37:35.638Z,21.80
2017-07-12T08:40:03.682Z,21.80
2017-07-12T08:42:32.446Z,22.00
2017-07-12T08:45:00.454Z,22.00
2017-07-12T08:47:28.469Z,22.00
2017-07-12T08:49:56.478Z,22.00
2017-07-12T08:52:25.254Z,22.10
2017-07-12T08:54:54.046Z,22.00
2017-07-12T08:57:22.813Z,22.00
2017-07-12T08:59:50.825Z,22.00
2017-07-12T09:02:18.870Z,21.90
2017-07-12T09:04:47.647Z,21.80
2017-07-12T09:07:15.654Z,21.80
2017-07-12T09:09:43.673Z,21.70
2017-07-12T09:12:11.681Z,21.50
2017-07-12T09:14:39.697Z,21.30
2017-07-12T09:17:07.729Z,21.30
2017-07-12T09:19:35.733Z,21.30
2017-07-12T09:22:03.742Z,21.30
2017-07-12T09:34:25.353Z,21.50
2017-07-12T09:36:53.361Z,21.50
2017-07-12T09:39:21.402Z,21.50
2017-07-12T09:41:49.404Z,21.50
2017-07-12T09:44:17.417Z,21.60
2017-07-12T09:46:45.445Z,21.60
2017-07-12T10:02:06.480Z,21.80
2017-07-12T10:04:34.497Z,21.80
2017-07-12T10:07:02.509Z,21.70
2017-07-12T10:09:31.312Z,22.10
2017-07-12T10:11:59.329Z,22.10
2017-07-12T10:14:27.349Z,22.30
2017-07-12T10:16:55.388Z,22.10
2017-07-12T10:19:23.396Z,22.30
2017-07-12T10:21:51.409Z,22.40
2017-07-12T10:24:19.448Z,22.60
2017-07-12T10:26:47.465Z,22.70
2017-07-12T10:29:15.481Z,22.80
2017-07-12T10:31:43.504Z,22.80
2017-07-12T10:34:11.513Z,22.90
2017-07-12T10:36:39.524Z,23.10
2017-07-12T10:39:07.569Z,23.40
2017-07-12T10:41:35.592Z,23.30
2017-07-12T10:44:03.612Z,23.10
2017-07-12T10:46:31.652Z,23.00
2017-07-12T10:48:59.680Z,23.20
2017-07-12T10:51:27.705Z,23.20
2017-07-12T10:53:55.741Z,23.00
2017-07-12T10:56:24.519Z,22.90
2017-07-12T10:58:52.541Z,22.80
2017-07-12T11:01:20.585Z,22.70
2017-07-12T11:03:48.606Z,22.60
2017-07-12T11:06:16.624Z,22.60
2017-07-12T11:08:44.677Z,22.60
2017-07-12T11:11:13.453Z,22.50
2017-07-12T11:17:12.976Z,22.50
2017-07-12T11:19:40.992Z,22.60
2017-07-12T11:22:09.004Z,22.60
2017-07-12T11:24:37.320Z,22.70
2017-07-12T11:27:05.295Z,22.70
2017-07-12T11:29:33.321Z,22.80
2017-07-12T11:32:01.355Z,22.80
2017-07-12T11:34:29.408Z,22.80
2017-07-12T11:36:57.465Z,22.90
2017-07-12T11:39:25.506Z,23.00
2017-07-12T11:41:53.523Z,23.00
2017-07-12T11:44:21.560Z,22.90
2017-07-12T11:46:49.624Z,22.90
2017-07-12T11:49:18.603Z,23.00
2017-07-12T11:51:46.628Z,22.90
2017-07-12T11:54:14.672Z,23.00
2017-07-12T11:56:42.685Z,23.10
2017-07-12T11:59:10.700Z,23.20
2017-07-12T12:01:38.739Z,23.10
2017-07-12T12:04:06.755Z,23.20
2017-07-12T12:06:34.779Z,23.10
2017-07-12T12:09:02.799Z,23.00
2017-07-12T12:11:31.580Z,23.20
2017-07-12T12:13:59.603Z,23.20
2017-07-12T12:16:27.647Z,23.20
2017-07-12T12:18:55.667Z,23.20
2017-07-12T12:21:23.676Z,23.20
2017-07-12T12:23:51.723Z,23.00
2017-07-12T12:26:20.499Z,22.70
2017-07-12T12:28:48.515Z,22.70
2017-07-12T12:31:16.543Z,22.70
2017-07-12T12:33:44.555Z,22.70
2017-07-12T12:36:13.483Z,22.70
2017-07-12T12:38:41.527Z,22.70
2017-07-12T12:41:09.547Z,22.60
2017-07-12T12:43:37.568Z,22.60
2017-07-12T12:46:05.588Z,22.20
2017-07-12T12:48:33.599Z,22.10
2017-07-12T12:51:01.619Z,22.30
2017-07-12T12:53:29.636Z,22.50
2017-07-12T12:55:58.559Z,22.60
2017-07-12T12:58:26.588Z,22.70
2017-07-12T13:00:54.636Z,23.00
2017-07-12T13:03:23.415Z,23.40
2017-07-12T13:05:52.195Z,23.50
2017-07-12T13:08:20.239Z,23.50
2017-07-12T13:10:48.256Z,23.50
2017-07-12T13:13:16.264Z,23.60
2017-07-12T13:15:44.308Z,23.50
2017-07-12T13:18:12.340Z,23.30
2017-07-12T13:20:40.356Z,23.00
2017-07-12T13:23:08.403Z,22.80
2017-07-12T13:25:37.192Z,22.60
2017-07-12T13:28:05.986Z,22.50
2017-07-12T13:30:34.797Z,22.50
2017-07-12T13:33:02.907Z,22.40
2017-07-12T13:35:30.920Z,22.40
2017-07-12T13:37:58.956Z,22.20
2017-07-12T13:40:27.340Z,22.10
2017-07-12T13:42:55.360Z,22.00
2017-07-12T13:45:23.399Z,21.60
2017-07-12T13:47:52.183Z,21.40
2017-07-12T13:50:20.192Z,21.40
2017-07-12T13:52:48.235Z,21.40
2017-07-12T13:55:16.256Z,21.20
2017-07-12T13:57:44.275Z,21.10
2017-07-12T14:00:12.318Z,21.00
2017-07-12T14:02:40.319Z,21.10
2017-07-12T14:05:08.330Z,21.10
2017-07-12T14:07:36.363Z,21.20
2017-07-12T14:10:04.371Z,21.30
2017-07-12T14:12:32.375Z,21.60
2017-07-12T14:15:00.510Z,21.90
2017-07-12T14:17:28.427Z,22.10
2017-07-12T14:19:56.455Z,22.20
2017-07-12T14:22:24.499Z,22.30
2017-07-12T14:24:52.503Z,22.30
2017-07-12T14:27:20.514Z,22.20
2017-07-12T14:29:48.552Z,22.10
2017-07-12T14:32:17.326Z,22.10
2017-07-12T14:34:45.338Z,22.10
2017-07-12T14:37:13.362Z,22.10
2017-07-12T14:39:41.370Z,22.20
2017-07-12T14:42:09.383Z,22.30
2017-07-12T14:44:37.414Z,22.30
2017-07-12T14:47:05.431Z,22.40
2017-07-12T14:49:33.437Z,22.50
2017-07-12T14:52:02.249Z,22.40
2017-07-12T14:54:30.254Z,22.40
2017-07-12T14:56:58.262Z,22.40
2017-07-12T14:59:27.062Z,22.50
2017-07-12T15:01:55.086Z,22.50
2017-07-12T15:04:23.094Z,22.80
2017-07-12T15:06:51.118Z,23.10
2017-07-12T15:09:19.130Z,23.20
2017-07-12T15:11:47.910Z,23.20
2017-07-12T15:14:15.946Z,23.20
2017-07-12T15:16:43.953Z,23.10
2017-07-12T15:19:12.734Z,23.00
2017-07-12T15:21:41.538Z,23.10
2017-07-12T15:24:09.825Z,23.10
2017-07-12T15:26:38.598Z,23.10
2017-07-12T15:29:06.629Z,23.10
2017-07-12T15:31:34.653Z,23.10
2017-07-12T15:34:02.665Z,23.00
2017-07-12T15:36:30.689Z,23.00
2017-07-12T15:38:58.762Z,23.10
2017-07-12T15:41:26.726Z,23.20
2017-07-12T15:43:54.750Z,23.30
2017-07-12T15:46:22.761Z,23.40
2017-07-12T15:48:50.778Z,23.50
2017-07-12T15:51:18.900Z,23.40
2017-07-12T15:53:46.906Z,23.30
2017-07-12T15:56:14.917Z,23.30
2017-07-12T15:58:42.939Z,23.20
2017-07-12T16:01:10.946Z,23.10
2017-07-12T16:03:38.953Z,23.10
2017-07-12T16:06:06.973Z,23.00
2017-07-12T16:08:34.990Z,22.90
2017-07-12T16:11:03.018Z,22.80
2017-07-12T16:13:31.045Z,22.50
2017-07-12T16:15:59.054Z,22.10
2017-07-12T16:18:27.073Z,21.70
2017-07-12T16:20:55.581Z,21.30
2017-07-12T16:23:23.601Z,20.80
2017-07-12T16:25:52.821Z,20.50
2017-07-12T16:28:20.877Z,20.50
2017-07-12T16:30:49.661Z,20.40
2017-07-12T16:33:18.429Z,20.40
2017-07-12T16:35:46.461Z,20.40
2017-07-12T16:38:14.473Z,20.40
2017-07-12T16:40:42.481Z,20.40
2017-07-12T16:43:10.517Z,20.40
2017-07-12T16:45:38.530Z,20.40
2017-07-12T16:48:06.545Z,20.40
2017-07-12T16:50:34.561Z,20.30
2017-07-12T16:53:02.581Z,20.40
2017-07-12T16:55:30.604Z,20.40
2017-07-12T16:57:58.625Z,20.40
2017-07-12T17:00:26.639Z,20.40
2017-07-12T17:02:54.641Z,20.40
2017-07-12T17:05:22.661Z,20.40
2017-07-12T17:07:51.442Z,20.30
2017-07-12T17:10:20.221Z,20.20
2017-07-12T17:12:49.001Z,20.10
2017-07-12T17:15:17.025Z,20.10
2017-07-12T17:17:45.037Z,20.10
2017-07-12T17:20:13.057Z,20.10
2017-07-12T17:22:41.060Z,20.00
2017-07-12T17:25:09.081Z,20.00
2017-07-12T17:27:37.116Z,19.90
2017-07-12T17:30:05.125Z,19.90
2017-07-12T17:32:33.137Z,19.90
2017-07-12T17:35:01.168Z,19.90
2017-07-12T17:37:29.181Z,20.00
2017-07-12T17:39:57.224Z,19.90
2017-07-12T17:42:25.228Z,19.80
2017-07-12T17:44:53.259Z,19.80
2017-07-12T17:47:21.258Z,19.80
2017-07-12T17:49:49.297Z,19.90
2017-07-12T17:52:17.305Z,19.90
2017-07-12T17:54:45.319Z,19.80
2017-07-12T17:57:13.352Z,19.80
2017-07-12T17:59:41.367Z,19.80
2017-07-12T18:02:09.372Z,19.80
2017-07-12T18:04:37.396Z,19.80
2017-07-12T18:07:05.409Z,19.80
2017-07-12T18:09:33.436Z,19.80
2017-07-12T18:12:01.456Z,19.70
2017-07-12T18:14:29.472Z,19.70
2017-07-12T18:16:57.504Z,19.70
2017-07-12T18:19:25.540Z,19.70
2017-07-12T18:21:53.552Z,19.60
2017-07-12T18:24:21.573Z,19.60
2017-07-12T18:26:49.630Z,19.60
2017-07-12T18:29:18.404Z,19.40
2017-07-12T18:31:47.196Z,19.40
2017-07-12T18:34:15.233Z,19.30
2017-07-12T18:36:43.241Z,19.20
2017-07-12T18:39:11.256Z,19.30
2017-07-12T18:41:39.283Z,19.40
2017-07-12T18:44:07.292Z,19.50
2017-07-12T18:46:35.328Z,19.50
2017-07-12T18:49:03.367Z,19.50
2017-07-12T18:51:32.171Z,19.40
2017-07-12T18:54:00.956Z,19.30
2017-07-12T18:56:29.020Z,19.30
2017-07-12T18:58:57.820Z,19.20
2017-07-12T19:01:26.772Z,19.10
2017-07-12T19:03:54.812Z,19.10
2017-07-12T19:06:22.836Z,19.00
2017-07-12T19:08:51.627Z,18.70
2017-07-12T19:11:20.424Z,18.60
2017-07-12T19:13:48.440Z,18.60
2017-07-12T19:16:16.465Z,18.50
2017-07-12T19:18:44.520Z,18.50
2017-07-12T19:21:12.553Z,18.40
2017-07-12T19:23:40.564Z,18.30
2017-07-12T19:26:09.380Z,18.10
2017-07-12T19:28:37.400Z,18.10
2017-07-12T19:31:05.531Z,18.10
2017-07-12T19:33:33.539Z,18.00
2017-07-12T19:36:01.556Z,17.90
2017-07-12T19:38:29.587Z,17.80
2017-07-12T19:40:57.636Z,17.80
2017-07-12T19:43:25.656Z,17.60
2017-07-12T19:45:53.672Z,17.60
2017-07-12T19:48:21.724Z,17.50
2017-07-12T19:50:49.744Z,17.40
2017-07-12T19:53:17.760Z,17.30
2017-07-12T19:55:45.792Z,17.30
2017-07-12T19:58:13.828Z,17.30
2017-07-12T20:00:41.860Z,17.20
2017-07-12T20:03:09.896Z,17.20
2017-07-12T20:05:38.693Z,17.10
2017-07-12T20:08:07.479Z,17.10
2017-07-12T20:10:35.607Z,17.00
2017-07-12T20:13:03.635Z,17.00
2017-07-12T20:15:31.652Z,17.00
2017-07-12T20:17:59.679Z,17.00
2017-07-12T20:20:27.715Z,16.90
2017-07-12T20:22:55.875Z,16.90
2017-07-12T20:25:24.194Z,16.80
2017-07-12T20:27:52.214Z,16.80
2017-07-12T20:30:21.203Z,16.80
2017-07-12T20:32:49.246Z,16.80
2017-07-12T20:35:17.275Z,16.80
2017-07-12T20:37:46.071Z,16.80
2017-07-12T20:40:14.112Z,16.80
2017-07-12T20:42:42.126Z,16.80
2017-07-12T20:45:10.346Z,16.80
2017-07-12T20:47:38.368Z,16.80
2017-07-12T20:50:06.402Z,16.70
2017-07-12T20:52:35.179Z,16.60
2017-07-12T20:55:03.210Z,16.60
2017-07-12T20:57:31.222Z,16.60
2017-07-12T21:00:00.006Z,16.50
2017-07-12T21:02:28.139Z,16.50
2017-07-12T21:04:56.079Z,16.50
2017-07-12T21:07:24.107Z,16.50
2017-07-12T21:09:52.155Z,16.50
2017-07-12T21:12:20.175Z,16.50
2017-07-12T21:14:51.907Z,16.40
2017-07-12T21:17:19.928Z,16.40
2017-07-12T21:19:47.943Z,16.30
2017-07-12T21:22:15.966Z,16.30
2017-07-12T21:24:44.899Z,16.20
2017-07-12T21:27:12.935Z,16.20
2017-07-12T21:29:40.959Z,16.30
2017-07-12T21:32:10.746Z,16.20
2017-07-12T21:34:38.783Z,16.20
2017-07-12T21:37:07.682Z,16.20
2017-07-12T21:39:35.694Z,16.20
2017-07-12T21:42:03.718Z,16.30
2017-07-12T21:44:31.770Z,16.20
2017-07-12T21:46:59.794Z,16.20
2017-07-12T21:49:27.810Z,16.20
2017-07-12T21:51:55.846Z,16.20
2017-07-12T21:54:45.187Z,16.20
2017-07-12T21:57:32.074Z,16.10
2017-07-12T22:00:17.646Z,16.20
2017-07-12T22:03:03.565Z,16.20
2017-07-12T22:05:50.153Z,16.20
2017-07-12T22:08:38.030Z,16.20
2017-07-12T22:11:24.870Z,16.20
2017-07-12T22:14:10.317Z,16.10
2017-07-12T22:16:56.015Z,16.10
2017-07-12T22:19:42.370Z,16.20
2017-07-12T22:22:28.005Z,16.20
2017-07-12T22:25:13.441Z,16.20
2017-07-12T22:28:01.030Z,16.30
2017-07-12T22:30:46.649Z,16.30
2017-07-12T22:33:32.398Z,16.30
2017-07-12T22:36:24.702Z,16.30
2017-07-12T22:38:58.477Z,16.30
2017-07-12T22:41:33.165Z,16.20
2017-07-12T22:44:01.613Z,16.20
2017-07-12T22:46:30.590Z,16.20
2017-07-12T22:48:58.626Z,16.20
2017-07-12T22:51:27.541Z,16.20
2017-07-12T22:53:55.548Z,16.20
2017-07-12T22:56:23.593Z,16.30
2017-07-12T22:58:51.605Z,16.20
2017-07-12T23:01:19.633Z,16.20
2017-07-12T23:03:47.674Z,16.20
2017-07-12T23:06:15.693Z,16.20
2017-07-12T23:08:44.669Z,16.30
2017-07-12T23:11:12.697Z,16.30
2017-07-12T23:13:40.705Z,16.30
2017-07-12T23:16:08.729Z,16.20
2017-07-12T23:18:37.684Z,16.30
2017-07-12T23:21:05.720Z,16.30
2017-07-12T23:23:33.740Z,16.30
2017-07-12T23:26:01.772Z,16.30
2017-07-12T23:28:31.788Z,16.20
2017-07-12T23:31:00.805Z,16.20
2017-07-12T23:33:30.792Z,16.20
2017-07-12T23:35:59.797Z,16.20
2017-07-12T23:38:27.837Z,16.20
2017-07-12T23:40:55.853Z,16.20
2017-07-12T23:43:23.873Z,16.20
2017-07-12T23:45:51.905Z,16.10
2017-07-12T23:48:25.569Z,16.10
2017-07-12T23:50:53.640Z,16.00
2017-07-12T23:53:21.673Z,16.00
2017-07-12T23:55:50.705Z,15.90
2017-07-12T23:58:18.736Z,15.90
